createdAt,value
2022-12-25T00:01:20.469Z,52.79
2022-12-25T00:03:47.607Z,52.58
2022-12-25T00:06:14.674Z,54.54
2022-12-25T00:08:41.680Z,54.58
2022-12-25T00:11:13.513Z,55.57
2022-12-25T00:13:41.391Z,55.74
2022-12-25T00:16:13.225Z,55.48
2022-12-25T00:18:40.000Z,54.55
2022-12-25T00:21:07.382Z,55.41
2022-12-25T00:23:35.404Z,55.75
2022-12-25T00:26:14.387Z,56.05
2022-12-25T00:28:41.422Z,56.06
2022-12-25T00:31:14.934Z,55.98
2022-12-25T00:33:44.676Z,56.06
2022-12-25T00:36:13.414Z,56.65
2022-12-25T00:38:41.328Z,56.56
2022-12-25T00:41:39.188Z,55.99
2022-12-25T00:44:07.113Z,54.77
2022-12-25T00:46:33.953Z,54.29
2022-12-25T00:49:00.984Z,53.89
2022-12-25T00:51:28.049Z,53.43
2022-12-25T00:53:54.723Z,53.05
2022-12-25T00:56:21.549Z,53.16
2022-12-25T00:58:48.605Z,53.41
2022-12-25T01:01:15.441Z,52.91
2022-12-25T01:03:42.312Z,52.77
2022-12-25T01:06:12.751Z,52.76
2022-12-25T01:09:04.514Z,52.21
2022-12-25T01:11:31.692Z,52.59
2022-12-25T01:13:58.465Z,52.40
2022-12-25T01:16:25.688Z,53.15
2022-12-25T01:18:52.445Z,53.27
2022-12-25T01:21:22.618Z,53.72
2022-12-25T01:23:52.597Z,53.84
2022-12-25T01:26:22.802Z,53.85
2022-12-25T01:28:50.575Z,54.83
2022-12-25T01:31:21.267Z,55.97
2022-12-25T01:33:48.527Z,56.72
2022-12-25T01:36:24.062Z,56.49
2022-12-25T01:38:52.756Z,58.09
2022-12-25T01:41:22.446Z,57.90
2022-12-25T01:44:36.931Z,57.76
2022-12-25T01:47:05.987Z,57.17
2022-12-25T01:49:37.570Z,56.54
2022-12-25T01:52:25.102Z,55.66
2022-12-25T01:55:03.976Z,55.94
2022-12-25T01:57:34.605Z,55.71
2022-12-25T02:00:02.525Z,55.07
2022-12-25T02:02:32.176Z,54.03
2022-12-25T02:05:12.117Z,53.45
2022-12-25T02:07:41.292Z,53.36
2022-12-25T02:10:11.905Z,53.20
2022-12-25T02:12:39.946Z,53.17
2022-12-25T02:15:13.662Z,53.35
2022-12-25T02:18:26.483Z,54.20
2022-12-25T02:21:05.162Z,53.51
2022-12-25T02:24:21.556Z,52.99
2022-12-25T02:27:30.014Z,52.93
2022-12-25T02:30:07.050Z,53.27
2022-12-25T02:32:39.646Z,54.12
2022-12-25T02:35:18.961Z,54.25
2022-12-25T02:38:04.804Z,54.04
2022-12-25T02:40:40.843Z,53.84
2022-12-25T02:43:37.150Z,53.34
2022-12-25T02:46:30.042Z,53.87
2022-12-25T02:49:21.743Z,53.48
2022-12-25T02:52:18.277Z,53.83
2022-12-25T02:55:09.971Z,53.84
2022-12-25T02:58:01.553Z,54.62
2022-12-25T03:00:48.239Z,54.17
2022-12-25T03:03:35.075Z,54.23
2022-12-25T03:06:22.319Z,53.63
2022-12-25T03:09:16.923Z,52.61
2022-12-25T03:11:47.528Z,52.95
2022-12-25T03:14:33.206Z,53.17
2022-12-25T03:17:00.944Z,52.78
2022-12-25T03:19:52.795Z,53.38
2022-12-25T03:22:46.811Z,54.24
2022-12-25T03:25:33.000Z,53.49
2022-12-25T03:28:01.311Z,53.56
2022-12-25T03:31:14.052Z,53.46
2022-12-25T03:34:23.802Z,53.04
2022-12-25T03:37:41.304Z,52.81
2022-12-25T03:40:35.800Z,52.78
2022-12-25T03:44:02.022Z,52.56
2022-12-25T03:46:54.454Z,52.60
2022-12-25T03:49:50.231Z,52.61
2022-12-25T03:52:37.954Z,52.85
2022-12-25T03:55:28.939Z,53.25
2022-12-25T03:58:14.308Z,53.30
2022-12-25T04:00:59.580Z,53.25
2022-12-25T04:03:44.948Z,53.68
2022-12-25T04:06:30.463Z,55.29
2022-12-25T04:09:15.988Z,55.21
2022-12-25T04:12:03.034Z,54.89
2022-12-25T04:14:48.582Z,54.29
2022-12-25T04:17:33.922Z,53.94
2022-12-25T04:20:19.117Z,53.62
2022-12-25T04:23:04.657Z,53.39
2022-12-25T04:25:50.230Z,53.60
2022-12-25T04:28:35.734Z,53.44
2022-12-25T04:31:21.020Z,53.32
2022-12-25T04:34:06.129Z,53.16
2022-12-25T04:36:32.923Z,53.15
2022-12-25T04:38:59.634Z,52.95
2022-12-25T04:41:26.437Z,52.64
2022-12-25T04:43:53.124Z,53.12
2022-12-25T04:46:19.889Z,53.35
2022-12-25T04:48:47.668Z,52.64
2022-12-25T04:51:17.128Z,52.37
2022-12-25T04:53:44.917Z,52.83
2022-12-25T04:56:12.786Z,52.77
2022-12-25T04:58:39.649Z,53.49
2022-12-25T05:01:06.684Z,53.36
2022-12-25T05:03:34.396Z,53.50
2022-12-25T05:06:02.257Z,53.54
2022-12-25T05:08:31.826Z,54.63
2022-12-25T05:10:58.720Z,54.10
2022-12-25T05:13:25.606Z,53.44
2022-12-25T05:15:52.575Z,53.12
2022-12-25T05:18:19.371Z,53.71
2022-12-25T05:20:55.912Z,52.56
2022-12-25T05:23:22.835Z,52.75
2022-12-25T05:25:49.553Z,51.88
2022-12-25T05:28:16.563Z,51.81
2022-12-25T05:30:43.465Z,51.82
2022-12-25T05:33:10.283Z,52.19
2022-12-25T05:35:38.421Z,52.41
2022-12-25T05:38:07.535Z,52.63
2022-12-25T05:40:35.062Z,52.21
2022-12-25T05:43:01.754Z,52.01
2022-12-25T05:45:28.477Z,51.93
2022-12-25T05:47:55.302Z,51.40
2022-12-25T05:50:22.021Z,52.53
2022-12-25T05:52:48.721Z,53.62
2022-12-25T05:55:15.600Z,53.31
2022-12-25T05:57:42.331Z,52.82
2022-12-25T06:00:09.974Z,52.20
2022-12-25T06:02:39.336Z,51.57
2022-12-25T06:05:06.783Z,51.58
2022-12-25T06:07:33.534Z,51.63
2022-12-25T06:10:00.398Z,51.88
2022-12-25T06:12:27.102Z,52.51
2022-12-25T06:14:53.761Z,54.24
2022-12-25T06:17:20.464Z,53.80
2022-12-25T06:19:47.180Z,53.50
2022-12-25T06:22:13.883Z,54.87
2022-12-25T06:24:41.020Z,53.88
2022-12-25T06:27:07.940Z,52.73
2022-12-25T06:29:34.655Z,52.61
2022-12-25T06:32:01.421Z,53.38
2022-12-25T06:34:28.199Z,53.33
2022-12-25T06:36:55.189Z,53.37
2022-12-25T06:39:21.982Z,53.51
2022-12-25T06:41:48.779Z,53.01
2022-12-25T06:44:15.499Z,52.81
2022-12-25T06:46:42.221Z,52.56
2022-12-25T06:49:10.237Z,52.97
2022-12-25T06:51:37.206Z,53.09
2022-12-25T06:54:04.483Z,53.42
2022-12-25T06:56:32.643Z,53.55
2022-12-25T06:59:06.915Z,52.95
2022-12-25T07:01:39.947Z,52.43
2022-12-25T07:04:12.595Z,52.43
2022-12-25T07:06:39.399Z,52.29
2022-12-25T07:09:06.043Z,51.75
2022-12-25T07:11:32.793Z,52.21
2022-12-25T07:13:59.480Z,52.41
2022-12-25T07:16:26.292Z,52.28
2022-12-25T07:18:53.007Z,52.46
2022-12-25T07:21:21.056Z,52.52
2022-12-25T07:23:50.090Z,52.22
2022-12-25T07:26:17.499Z,52.34
2022-12-25T07:28:44.503Z,51.42
2022-12-25T07:31:15.031Z,51.79
2022-12-25T07:33:42.242Z,52.22
2022-12-25T07:36:13.090Z,52.49
2022-12-25T07:38:42.081Z,52.55
2022-12-25T07:41:11.176Z,52.57
2022-12-25T07:43:37.932Z,52.38
2022-12-25T07:46:05.185Z,52.25
2022-12-25T07:48:32.227Z,52.41
2022-12-25T07:51:17.118Z,52.43
2022-12-25T07:53:43.845Z,52.38
2022-12-25T07:56:20.498Z,52.63
2022-12-25T07:58:48.615Z,53.01
2022-12-25T08:01:27.044Z,52.39
2022-12-25T08:03:55.534Z,54.50
2022-12-25T08:06:26.695Z,54.12
2022-12-25T08:08:53.395Z,53.69
2022-12-25T08:11:20.094Z,54.22
2022-12-25T08:13:46.961Z,54.27
2022-12-25T08:16:13.725Z,55.21
2022-12-25T08:18:40.714Z,55.08
2022-12-25T08:21:12.012Z,53.71
2022-12-25T08:23:42.555Z,54.31
2022-12-25T08:26:14.328Z,54.06
2022-12-25T08:28:41.241Z,54.19
2022-12-25T08:31:24.343Z,54.36
2022-12-25T08:33:54.772Z,55.53
2022-12-25T08:36:22.063Z,54.51
2022-12-25T08:38:49.328Z,54.94
2022-12-25T08:41:17.019Z,54.64
2022-12-25T08:43:44.136Z,53.78
2022-12-25T08:46:11.785Z,53.99
2022-12-25T08:48:41.553Z,55.05
2022-12-25T08:51:15.358Z,55.74
2022-12-25T08:53:47.177Z,55.06
2022-12-25T08:56:15.585Z,54.29
2022-12-25T08:58:43.100Z,53.99
2022-12-25T09:01:10.156Z,53.59
2022-12-25T09:03:37.166Z,53.21
2022-12-25T09:06:11.113Z,52.86
2022-12-25T09:08:44.213Z,52.93
2022-12-25T09:11:15.471Z,52.81
2022-12-25T09:13:42.327Z,52.54
2022-12-25T09:16:16.820Z,51.86
2022-12-25T09:18:43.640Z,52.95
2022-12-25T09:21:13.752Z,52.78
2022-12-25T09:23:40.601Z,52.64
2022-12-25T09:26:11.459Z,52.56
2022-12-25T09:28:38.174Z,52.32
2022-12-25T09:31:05.287Z,53.52
2022-12-25T09:33:32.210Z,53.47
2022-12-25T09:36:05.876Z,53.03
2022-12-25T09:38:34.195Z,53.33
2022-12-25T09:41:21.999Z,51.67
2022-12-25T09:44:32.567Z,51.37
2022-12-25T09:47:15.918Z,51.13
2022-12-25T09:50:23.226Z,51.16
2022-12-25T09:53:09.773Z,51.34
2022-12-25T09:55:46.111Z,51.31
2022-12-25T09:58:13.637Z,52.67
2022-12-25T10:00:54.629Z,51.59
2022-12-25T10:03:39.950Z,51.23
2022-12-25T10:06:16.647Z,51.34
2022-12-25T10:09:12.880Z,50.94
2022-12-25T10:12:30.276Z,50.35
2022-12-25T10:15:45.405Z,50.22
2022-12-25T10:18:27.333Z,50.65
2022-12-25T10:21:00.439Z,50.35
2022-12-25T10:23:40.718Z,49.96
2022-12-25T10:26:25.193Z,49.72
2022-12-25T10:29:13.806Z,49.61
2022-12-25T10:31:45.186Z,49.07
2022-12-25T10:34:14.395Z,49.34
2022-12-25T10:36:44.650Z,49.98
2022-12-25T10:39:21.528Z,50.07
2022-12-25T10:42:00.133Z,50.21
2022-12-25T10:44:26.932Z,50.94
2022-12-25T10:46:58.108Z,49.79
2022-12-25T10:49:32.499Z,49.94
2022-12-25T10:51:59.297Z,49.00
2022-12-25T10:54:30.256Z,49.48
2022-12-25T10:57:09.063Z,49.25
2022-12-25T10:59:44.404Z,49.38
2022-12-25T11:02:19.005Z,50.24
2022-12-25T11:04:46.352Z,51.44
2022-12-25T11:07:18.959Z,50.27
2022-12-25T11:10:04.737Z,50.04
2022-12-25T11:12:45.510Z,49.06
2022-12-25T11:15:45.155Z,49.22
2022-12-25T11:18:22.430Z,48.95
2022-12-25T11:20:55.091Z,49.17
2022-12-25T11:23:25.186Z,49.52
2022-12-25T11:25:59.820Z,50.13
2022-12-25T11:28:29.219Z,49.35
2022-12-25T11:31:07.575Z,49.84
2022-12-25T11:34:09.734Z,49.85
2022-12-25T11:36:45.890Z,49.99
2022-12-25T11:39:31.700Z,49.91
2022-12-25T11:42:49.383Z,50.79
2022-12-25T11:45:29.331Z,50.90
2022-12-25T11:48:09.413Z,50.88
2022-12-25T11:50:51.669Z,51.27
2022-12-25T11:53:52.986Z,50.61
2022-12-25T11:56:28.000Z,49.80
2022-12-25T11:59:01.476Z,49.63
2022-12-25T12:01:42.453Z,48.80
2022-12-25T12:04:31.787Z,48.52
2022-12-25T12:07:27.028Z,48.48
2022-12-25T12:10:19.047Z,49.92
2022-12-25T12:13:06.721Z,48.94
2022-12-25T12:15:47.439Z,49.09
2022-12-25T12:18:27.775Z,49.71
2022-12-25T12:20:59.877Z,49.97
2022-12-25T12:23:29.167Z,49.48
2022-12-25T12:25:56.771Z,50.25
2022-12-25T12:28:29.052Z,49.98
2022-12-25T12:31:04.346Z,49.89
2022-12-25T12:33:57.476Z,50.20
2022-12-25T12:36:35.681Z,50.11
2022-12-25T12:39:05.162Z,50.67
2022-12-25T12:42:01.484Z,51.77
2022-12-25T12:44:34.116Z,50.62
2022-12-25T12:47:00.861Z,50.64
2022-12-25T12:49:33.527Z,50.73
2022-12-25T12:52:38.344Z,50.50
2022-12-25T12:55:14.948Z,50.48
2022-12-25T12:57:42.750Z,50.56
2022-12-25T13:00:19.126Z,49.29
2022-12-25T13:03:09.673Z,49.81
2022-12-25T13:05:41.223Z,49.62
2022-12-25T13:08:53.297Z,50.85
2022-12-25T13:11:24.426Z,51.15
2022-12-25T13:13:54.602Z,50.33
2022-12-25T13:16:38.991Z,49.89
2022-12-25T13:19:23.496Z,49.71
2022-12-25T13:22:02.527Z,49.55
2022-12-25T13:24:37.006Z,49.98
2022-12-25T13:27:23.301Z,49.61
2022-12-25T13:29:50.194Z,49.84
2022-12-25T13:32:26.126Z,49.63
2022-12-25T13:34:54.098Z,49.47
2022-12-25T13:37:27.500Z,50.20
2022-12-25T13:40:01.169Z,50.27
2022-12-25T13:42:36.112Z,50.87
2022-12-25T13:45:15.788Z,52.23
2022-12-25T13:47:43.276Z,52.64
2022-12-25T13:50:32.853Z,53.47
2022-12-25T13:53:13.521Z,53.15
2022-12-25T13:55:44.148Z,54.03
2022-12-25T13:58:30.567Z,53.94
2022-12-25T14:01:00.824Z,55.73
2022-12-25T14:03:43.908Z,56.36
2022-12-25T14:06:26.174Z,55.00
2022-12-25T14:08:56.143Z,53.81
2022-12-25T14:11:26.963Z,54.09
2022-12-25T14:14:01.689Z,53.39
2022-12-25T14:16:35.129Z,54.40
2022-12-25T14:19:03.550Z,54.31
2022-12-25T14:21:49.365Z,54.73
2022-12-25T14:24:17.362Z,56.37
2022-12-25T14:26:44.305Z,56.33
2022-12-25T14:29:18.215Z,56.60
2022-12-25T14:31:47.281Z,55.51
2022-12-25T14:34:25.996Z,53.56
2022-12-25T14:36:53.561Z,54.53
2022-12-25T14:39:38.516Z,54.42
2022-12-25T14:42:26.124Z,55.03
2022-12-25T14:45:26.623Z,56.06
2022-12-25T14:48:04.104Z,56.57
2022-12-25T14:50:38.666Z,57.24
2022-12-25T14:53:19.459Z,56.82
2022-12-25T14:55:50.529Z,56.79
2022-12-25T14:58:28.265Z,55.55
2022-12-25T15:01:04.535Z,55.73
2022-12-25T15:03:36.494Z,55.46
2022-12-25T15:06:20.808Z,56.89
2022-12-25T15:08:59.760Z,57.11
2022-12-25T15:11:27.032Z,56.22
2022-12-25T15:13:53.792Z,56.72
2022-12-25T15:16:34.644Z,57.39
2022-12-25T15:19:02.489Z,57.89
2022-12-25T15:21:32.975Z,58.03
2022-12-25T15:24:00.390Z,57.32
2022-12-25T15:26:30.322Z,57.66
2022-12-25T15:28:58.265Z,57.65
2022-12-25T15:31:31.650Z,57.73
2022-12-25T15:34:01.937Z,56.60
2022-12-25T15:36:29.157Z,56.49
2022-12-25T15:38:56.514Z,56.29
2022-12-25T15:41:52.503Z,55.82
2022-12-25T15:44:19.759Z,55.54
2022-12-25T15:46:47.436Z,57.03
2022-12-25T15:49:16.399Z,56.35
2022-12-25T15:51:44.104Z,58.74
2022-12-25T15:54:11.433Z,58.34
2022-12-25T15:57:18.186Z,58.33
2022-12-25T15:59:45.071Z,59.75
2022-12-25T16:02:19.480Z,59.83
2022-12-25T16:04:46.827Z,60.35
2022-12-25T16:07:20.084Z,60.32
2022-12-25T16:09:46.995Z,61.38
2022-12-25T16:12:13.701Z,61.65
2022-12-25T16:14:40.444Z,62.06
2022-12-25T16:17:07.891Z,62.90
2022-12-25T16:19:34.686Z,63.00
2022-12-25T16:22:01.407Z,62.55
2022-12-25T16:24:28.140Z,61.30
2022-12-25T16:26:54.831Z,62.30
2022-12-25T16:29:21.585Z,62.56
2022-12-25T16:31:48.399Z,61.86
2022-12-25T16:34:15.105Z,63.54
2022-12-25T16:36:41.833Z,65.09
2022-12-25T16:39:08.589Z,65.41
2022-12-25T16:41:35.258Z,66.43
2022-12-25T16:44:10.052Z,63.48
2022-12-25T16:46:39.926Z,62.81
2022-12-25T16:49:06.747Z,60.73
2022-12-25T16:51:33.807Z,59.80
2022-12-25T16:54:00.543Z,61.16
2022-12-25T16:56:28.251Z,61.88
2022-12-25T16:58:57.470Z,60.45
2022-12-25T17:01:25.828Z,61.51
2022-12-25T17:03:53.114Z,61.99
2022-12-25T17:06:28.244Z,61.96
2022-12-25T17:08:59.464Z,60.60
2022-12-25T17:11:29.780Z,61.41
2022-12-25T17:14:02.406Z,61.64
2022-12-25T17:16:33.858Z,60.31
2022-12-25T17:19:15.906Z,59.91
2022-12-25T17:21:42.776Z,59.45
2022-12-25T17:24:10.403Z,58.74
2022-12-25T17:26:37.336Z,60.69
2022-12-25T17:29:04.144Z,60.90
2022-12-25T17:31:31.101Z,62.05
2022-12-25T17:33:59.766Z,62.45
2022-12-25T17:36:27.106Z,63.90
2022-12-25T17:38:53.799Z,62.88
2022-12-25T17:41:21.091Z,60.59
2022-12-25T17:43:48.598Z,60.76
2022-12-25T17:46:25.102Z,61.24
2022-12-25T17:48:54.351Z,61.05
2022-12-25T17:51:25.331Z,61.44
2022-12-25T17:54:00.117Z,60.80
2022-12-25T17:56:27.056Z,62.66
2022-12-25T17:58:57.793Z,65.09
2022-12-25T18:01:27.594Z,64.02
2022-12-25T18:03:55.016Z,61.59
2022-12-25T18:06:24.148Z,60.49
2022-12-25T18:08:51.015Z,60.71
2022-12-25T18:11:28.956Z,60.51
2022-12-25T18:13:58.193Z,59.91
2022-12-25T18:16:27.361Z,59.17
2022-12-25T18:18:54.230Z,59.69
2022-12-25T18:21:22.758Z,60.14
2022-12-25T18:23:50.157Z,60.92
2022-12-25T18:26:18.548Z,61.56
2022-12-25T18:28:45.548Z,61.35
2022-12-25T18:31:19.366Z,60.58
2022-12-25T18:33:46.738Z,60.76
2022-12-25T18:36:15.703Z,60.16
2022-12-25T18:38:42.757Z,60.42
2022-12-25T18:41:10.827Z,60.87
2022-12-25T18:43:52.987Z,61.04
2022-12-25T18:46:25.584Z,59.15
2022-12-25T18:48:56.390Z,60.36
2022-12-25T18:51:23.555Z,60.83
2022-12-25T18:53:51.146Z,59.25
2022-12-25T18:56:19.714Z,57.38
2022-12-25T18:58:47.410Z,57.23
2022-12-25T19:01:22.376Z,57.30
2022-12-25T19:03:51.301Z,59.36
2022-12-25T19:06:27.214Z,57.45
2022-12-25T19:08:55.670Z,56.30
2022-12-25T19:11:23.363Z,57.18
2022-12-25T19:13:50.276Z,57.55
2022-12-25T19:16:17.327Z,59.50
2022-12-25T19:18:45.740Z,60.10
2022-12-25T19:21:12.428Z,58.66
2022-12-25T19:23:40.530Z,60.74
2022-12-25T19:26:08.814Z,60.72
2022-12-25T19:28:37.183Z,63.84
2022-12-25T19:31:07.430Z,64.33
2022-12-25T19:33:36.237Z,65.33
2022-12-25T19:36:08.124Z,64.36
2022-12-25T19:38:34.996Z,64.86
2022-12-25T19:41:15.629Z,65.00
2022-12-25T19:43:45.542Z,65.80
2022-12-25T19:46:19.534Z,64.15
2022-12-25T19:48:46.939Z,62.92
2022-12-25T19:51:26.573Z,62.29
2022-12-25T19:53:56.109Z,61.53
2022-12-25T19:56:24.356Z,61.70
2022-12-25T19:58:51.133Z,60.74
2022-12-25T20:01:21.043Z,60.31
2022-12-25T20:03:49.262Z,59.32
2022-12-25T20:06:24.700Z,59.71
2022-12-25T20:08:58.028Z,60.06
2022-12-25T20:11:28.275Z,60.14
2022-12-25T20:13:55.671Z,58.85
2022-12-25T20:16:23.844Z,58.62
2022-12-25T20:18:51.266Z,58.05
2022-12-25T20:21:21.377Z,58.07
2022-12-25T20:23:51.835Z,57.25
2022-12-25T20:26:22.741Z,57.82
2022-12-25T20:28:49.525Z,57.09
2022-12-25T20:31:22.939Z,57.02
2022-12-25T20:33:53.849Z,56.98
2022-12-25T20:36:20.785Z,57.29
2022-12-25T20:38:47.523Z,56.68
2022-12-25T20:41:27.894Z,56.51
2022-12-25T20:43:56.230Z,56.71
2022-12-25T20:46:23.905Z,56.79
2022-12-25T20:48:51.787Z,57.13
2022-12-25T20:51:23.575Z,57.75
2022-12-25T20:53:51.064Z,58.88
2022-12-25T20:56:20.942Z,58.73
2022-12-25T20:58:47.740Z,59.51
2022-12-25T21:01:17.917Z,58.76
2022-12-25T21:03:45.235Z,58.86
2022-12-25T21:06:12.491Z,58.28
2022-12-25T21:08:40.995Z,58.62
2022-12-25T21:11:09.169Z,58.41
2022-12-25T21:13:40.530Z,57.75
2022-12-25T21:16:11.160Z,57.45
2022-12-25T21:18:38.051Z,56.55
2022-12-25T21:21:07.275Z,56.79
2022-12-25T21:23:36.732Z,55.66
2022-12-25T21:26:31.870Z,56.86
2022-12-25T21:29:02.178Z,57.34
2022-12-25T21:31:30.876Z,60.43
2022-12-25T21:33:59.822Z,59.07
2022-12-25T21:36:30.552Z,60.10
2022-12-25T21:39:14.579Z,59.61
2022-12-25T21:41:41.967Z,59.09
2022-12-25T21:44:10.892Z,61.95
2022-12-25T21:46:37.832Z,61.04
2022-12-25T21:49:04.656Z,63.28
2022-12-25T21:51:52.760Z,62.34
2022-12-25T21:54:23.027Z,63.91
2022-12-25T21:56:50.594Z,62.01
2022-12-25T21:59:22.379Z,62.03
2022-12-25T22:01:51.442Z,63.40
2022-12-25T22:04:21.756Z,62.21
2022-12-25T22:07:07.158Z,62.78
2022-12-25T22:09:34.252Z,63.20
2022-12-25T22:12:20.047Z,63.11
2022-12-25T22:15:02.438Z,62.07
2022-12-25T22:18:00.420Z,62.16
2022-12-25T22:20:34.529Z,62.25
2022-12-25T22:23:01.797Z,62.43
2022-12-25T22:25:28.943Z,63.56
2022-12-25T22:27:55.967Z,61.97
2022-12-25T22:30:29.023Z,62.71
2022-12-25T22:32:56.975Z,61.35
2022-12-25T22:35:24.516Z,59.92
2022-12-25T22:37:51.448Z,59.17
2022-12-25T22:40:20.258Z,59.91
2022-12-25T22:42:47.460Z,58.82
2022-12-25T22:45:14.566Z,60.51
2022-12-25T22:47:41.843Z,61.35
2022-12-25T22:50:10.903Z,62.47
2022-12-25T22:52:38.243Z,61.70
2022-12-25T22:55:07.678Z,61.53
2022-12-25T22:57:34.562Z,60.88
2022-12-25T23:00:01.701Z,62.35
2022-12-25T23:02:28.905Z,62.18
2022-12-25T23:04:55.749Z,62.31
2022-12-25T23:07:22.528Z,63.97
2022-12-25T23:09:49.322Z,63.60
2022-12-25T23:12:34.795Z,62.56
2022-12-25T23:15:01.579Z,62.71
2022-12-25T23:17:46.952Z,61.56
2022-12-25T23:20:33.242Z,60.37
2022-12-25T23:23:19.150Z,63.33
2022-12-25T23:26:04.888Z,64.41
2022-12-25T23:28:50.103Z,63.92
2022-12-25T23:31:17.223Z,64.11
2022-12-25T23:33:44.013Z,64.31
2022-12-25T23:36:10.783Z,66.28
2022-12-25T23:38:37.476Z,65.19
2022-12-25T23:41:04.321Z,67.38
2022-12-25T23:43:31.045Z,66.50
2022-12-25T23:45:57.859Z,67.50
2022-12-25T23:48:24.552Z,67.37
2022-12-25T23:50:51.676Z,67.56
2022-12-25T23:53:18.387Z,66.15
2022-12-25T23:55:50.073Z,65.40
2022-12-25T23:58:20.344Z,65.94
